.
WxDataArchive / Data Records for 2015-12-24
2015-12-23 December 2015 2015-12-25

Data Records for Thursday, 24 December 2015

Time	Temp	Chill	HIndex	Humid	Dewpt	 Wind 	HiWind	WindDir	Rain 	Barom
-----	----	-----	------	-----	-----	------	------	-------	-----	-----
00:00	57.0	57.0	57.0	82	51.6	3	6	248	0.00	29.388 
00:05	56.7	56.7	56.7	83	51.6	2	9	248	0.00	29.388 
00:10	56.7	56.7	56.7	83	51.6	3	6	248	0.00	29.388 
00:15	56.6	56.6	56.6	83	51.5	2	6	248	0.00	29.392 
00:20	56.5	56.5	56.5	84	51.7	1	6	248	0.00	29.392 
00:25	56.5	56.5	56.5	84	51.7	2	10	248	0.00	29.392 
00:30	56.2	56.2	56.2	84	51.4	1	6	248	0.00	29.404 
00:35	56.0	56.0	56.0	84	51.2	2	6	248	0.00	29.404 
00:40	56.0	56.0	56.0	84	51.2	2	6	248	0.00	29.404 
00:45	55.9	55.9	55.9	85	51.5	2	9	248	0.00	29.410 
00:50	55.9	55.9	55.9	85	51.5	2	5	248	0.00	29.410 
00:55	56.0	56.0	56.0	85	51.6	2	7	248	0.00	29.410 
01:00	55.9	55.9	55.9	85	51.5	2	7	248	0.00	29.420 
01:05	56.0	56.0	56.0	85	51.6	2	6	225	0.00	29.420 
01:10	56.0	56.0	56.0	84	51.2	3	9	248	0.00	29.420 
01:15	56.0	56.0	56.0	84	51.2	2	7	248	0.00	29.419 
01:20	56.2	56.2	56.2	83	51.1	2	6	248	0.00	29.419 
01:25	56.3	56.3	56.3	83	51.2	2	11	248	0.00	29.419 
01:30	56.3	56.3	56.3	82	50.9	2	10	248	0.00	29.422 
01:35	56.3	56.3	56.3	82	50.9	2	7	248	0.00	29.422 
01:40	56.3	56.3	56.3	82	50.9	3	9	248	0.00	29.422 
01:45	56.3	56.3	56.3	81	50.5	2	7	248	0.00	29.438 
01:50	56.3	56.3	56.3	81	50.5	2	9	248	0.00	29.438 
01:55	56.3	56.3	56.3	81	50.5	2	10	248	0.00	29.438 
02:00	56.2	56.2	56.2	81	50.4	3	11	248	0.00	29.453 
02:05	55.3	55.3	55.3	73	46.8	6	13	270	0.00	29.453 
02:10	53.9	53.9	53.9	72	45.1	4	9	270	0.00	29.453 
02:15	52.9	52.9	52.9	73	44.5	3	8	248	0.00	29.489 
02:20	52.3	52.3	52.3	73	43.9	3	7	270	0.00	29.489 
02:25	51.7	51.7	51.7	73	43.3	4	10	248	0.00	29.489 
02:30	51.1	51.1	51.1	72	42.4	4	12	248	0.00	29.511 
02:35	50.5	50.5	50.5	73	42.2	4	12	248	0.00	29.511 
02:40	50.1	50.1	50.1	73	41.8	4	9	248	0.00	29.511 
02:45	49.5	48.3	49.5	73	41.2	4	9	270	0.00	29.539 
02:50	49.1	49.1	49.1	75	41.5	3	7	248	0.00	29.539 
02:55	48.8	48.8	48.8	75	41.2	3	7	248	0.00	29.539 
03:00	48.5	47.1	48.5	75	40.9	4	10	270	0.00	29.557 
03:05	48.3	48.3	48.3	75	40.7	2	6	248	0.00	29.557 
03:10	48.0	48.0	48.0	76	40.8	2	5	248	0.00	29.557 
03:15	47.7	47.7	47.7	76	40.5	3	7	248	0.00	29.578 
03:20	47.4	47.4	47.4	75	39.9	3	10	270	0.00	29.578 
03:25	47.1	47.1	47.1	74	39.2	3	10	270	0.00	29.578 
03:30	46.7	45.1	46.7	73	38.5	4	10	248	0.00	29.594 
03:35	46.5	46.5	46.5	73	38.3	3	10	248	0.00	29.594 
03:40	46.2	46.2	46.2	73	38.0	3	13	270	0.00	29.594 
03:45	46.0	46.0	46.0	73	37.8	3	7	248	0.00	29.612 
03:50	45.7	43.9	45.7	74	37.9	4	7	248	0.00	29.612 
03:55	45.4	45.4	45.4	74	37.6	3	7	248	0.00	29.612 
04:00	45.2	45.2	45.2	75	37.8	3	6	248	0.00	29.623 
04:05	44.9	44.9	44.9	76	37.8	3	7	270	0.00	29.623 
04:10	44.8	44.8	44.8	76	37.7	3	7	248	0.00	29.623 
04:15	44.6	44.6	44.6	77	37.8	2	4	270	0.00	29.645 
04:20	44.3	44.3	44.3	77	37.6	2	5	248	0.00	29.645 
04:25	44.1	44.1	44.1	77	37.4	3	7	270	0.00	29.645 
04:30	43.5	41.4	43.5	74	35.8	4	10	270	0.00	29.667 
04:35	42.9	42.9	42.9	74	35.2	3	9	270	0.00	29.667 
04:40	42.5	42.5	42.5	76	35.5	2	4	270	0.00	29.667 
04:45	42.2	42.2	42.2	76	35.2	3	7	248	0.00	29.691 
04:50	41.9	39.5	41.9	76	34.9	4	9	270	0.00	29.691 
04:55	41.8	39.4	41.8	76	34.8	4	8	270	0.00	29.691 
05:00	41.8	41.8	41.8	77	35.1	3	7	270	0.00	29.702 
05:05	41.8	38.6	41.8	77	35.1	5	10	270	0.00	29.702 
05:10	41.6	39.2	41.6	77	34.9	4	9	270	0.00	29.702 
05:15	41.6	39.2	41.6	77	34.9	4	10	270	0.00	29.715 
05:20	41.6	41.6	41.6	77	34.9	3	6	248	0.00	29.715 
05:25	41.6	41.6	41.6	77	34.9	3	11	248	0.00	29.715 
05:30	41.5	41.5	41.5	76	34.5	3	7	292	0.00	29.732 
05:35	41.2	41.2	41.2	75	33.9	3	10	270	0.00	29.732 
05:40	41.2	41.2	41.2	76	34.2	3	5	248	0.00	29.732 
05:45	41.2	41.2	41.2	76	34.2	2	5	248	0.00	29.755 
05:50	41.1	41.1	41.1	75	33.8	3	7	270	0.00	29.755 
05:55	41.1	41.1	41.1	75	33.8	3	7	248	0.00	29.755 
06:00	40.9	40.9	40.9	75	33.6	3	6	248	0.00	29.771 
06:05	40.9	40.9	40.9	76	33.9	1	4	248	0.00	29.771 
06:10	40.6	40.6	40.6	76	33.6	2	5	248	0.00	29.771 
06:15	40.6	40.6	40.6	76	33.6	1	3	248	0.00	29.777 
06:20	40.3	40.3	40.3	76	33.3	1	4	248	0.00	29.777 
06:25	40.2	40.2	40.2	76	33.3	1	5	270	0.00	29.777 
06:30	40.1	40.1	40.1	76	33.2	2	4	248	0.00	29.793 
06:35	40.1	40.1	40.1	76	33.2	1	5	248	0.00	29.793 
06:40	39.9	39.9	39.9	77	33.3	0	3	248	0.00	29.793 
06:45	39.9	39.9	39.9	77	33.3	1	3	248	0.00	29.816 
06:50	39.9	39.9	39.9	76	33.0	2	7	248	0.00	29.816 
06:55	39.9	39.9	39.9	75	32.6	2	6	248	0.00	29.816 
07:00	39.8	39.8	39.8	74	32.2	2	9	248	0.00	29.824 
07:05	39.6	39.6	39.6	74	32.0	2	5	248	0.00	29.824 
07:10	39.5	39.5	39.5	74	31.9	3	7	248	0.00	29.824 
07:15	39.5	39.5	39.5	74	31.9	2	6	248	0.00	29.836 
07:20	39.3	39.3	39.3	74	31.7	1	5	248	0.00	29.836 
07:25	39.2	39.2	39.2	75	32.0	1	5	248	0.00	29.836 
07:30	39.2	39.2	39.2	75	32.0	1	4	248	0.00	29.850 
07:35	39.1	39.1	39.1	76	32.2	1	4	248	0.00	29.850 
07:40	38.9	38.9	38.9	76	32.0	1	4	248	0.00	29.850 
07:45	38.9	38.9	38.9	77	32.3	1	4	248	0.00	29.860 
07:50	38.8	38.8	38.8	77	32.2	0	2	248	0.00	29.860 
07:55	38.6	38.6	38.6	77	32.0	0	3	248	0.00	29.860 
08:00	38.6	38.6	38.6	78	32.3	0	1	248	0.00	29.867 
08:05	38.5	38.5	38.5	79	32.6	0	2	248	0.00	29.867 
08:10	38.5	38.5	38.5	79	32.6	0	2	248	0.00	29.867 
08:15	38.5	38.5	38.5	80	32.9	1	5	248	0.00	29.872 
08:20	38.5	38.5	38.5	80	32.9	0	2	270	0.00	29.872 
08:25	38.3	38.3	38.3	79	32.4	1	3	270	0.00	29.872 
08:30	38.5	38.5	38.5	79	32.6	1	3	270	0.00	29.882 
08:35	38.5	38.5	38.5	78	32.2	0	3	270	0.00	29.882 
08:40	38.5	38.5	38.5	79	32.6	0	4	248	0.00	29.882 
08:45	38.5	38.5	38.5	79	32.6	0	3	248	0.00	29.882 
08:50	38.5	38.5	38.5	78	32.2	0	2	248	0.00	29.882 
08:55	38.5	38.5	38.5	79	32.6	0	4	248	0.00	29.882 
09:00	38.5	38.5	38.5	79	32.6	0	2	248	0.00	29.887 
09:05	38.5	38.5	38.5	79	32.6	0	1	248	0.00	29.887 
09:10	38.5	38.5	38.5	80	32.9	0	3	248	0.00	29.887 
09:15	38.6	38.6	38.6	80	33.0	0	3	248	0.00	29.898 
09:20	38.8	38.8	38.8	80	33.2	0	1	248	0.00	29.898 
09:25	38.8	38.8	38.8	80	33.2	0	2	248	0.00	29.898 
09:30	38.9	38.9	38.9	79	33.0	0	3	248	0.00	29.901 
09:35	39.2	39.2	39.2	80	33.6	0	1	248	0.00	29.901 
09:40	39.3	39.3	39.3	79	33.3	1	3	248	0.00	29.901 
09:45	39.5	39.5	39.5	79	33.5	0	4	248	0.00	29.914 
09:50	39.6	39.6	39.6	79	33.6	1	3	22	0.00	29.914 
09:55	39.6	39.6	39.6	78	33.3	0	4	248	0.00	29.914 
10:00	39.8	39.8	39.8	78	33.5	1	4	248	0.00	29.931 
10:05	39.9	39.9	39.9	78	33.6	1	4	248	0.00	29.931 
10:10	40.1	40.1	40.1	78	33.8	0	3	270	0.00	29.931 
10:15	40.2	40.2	40.2	77	33.6	1	3	270	0.00	29.940 
10:20	40.5	40.5	40.5	77	33.9	1	3	248	0.00	29.940 
10:25	40.5	40.5	40.5	77	33.9	1	3	248	0.00	29.940 
10:30	40.6	40.6	40.6	77	34.0	0	4	248	0.00	29.946 
10:35	40.8	40.8	40.8	76	33.8	1	4	248	0.00	29.946 
10:40	41.1	41.1	41.1	76	34.1	1	4	248	0.00	29.946 
10:45	41.3	41.3	41.3	76	34.3	1	3	248	0.00	29.953 
10:50	41.6	41.6	41.6	76	34.6	1	4	248	0.00	29.953 
10:55	41.8	41.8	41.8	75	34.5	1	4	270	0.00	29.953 
11:00	41.8	41.8	41.8	75	34.5	1	4	248	0.00	29.975 
11:05	41.8	41.8	41.8	75	34.5	1	5	248	0.00	29.975 
11:10	41.8	41.8	41.8	75	34.5	2	7	248	0.00	29.975 
11:15	41.8	41.8	41.8	74	34.1	2	7	248	0.00	29.993 
11:20	41.9	41.9	41.9	74	34.2	1	6	248	0.00	29.993 
11:25	41.9	41.9	41.9	74	34.2	1	4	248	0.00	29.993 
11:30	42.1	42.1	42.1	73	34.1	2	6	270	0.00	30.002 
11:35	42.2	42.2	42.2	73	34.2	1	5	248	0.00	30.002 
11:40	42.2	42.2	42.2	73	34.2	1	5	248	0.00	30.002 
11:45	42.3	42.3	42.3	73	34.3	1	4	248	0.00	30.007 
11:50	42.5	42.5	42.5	73	34.5	1	5	270	0.00	30.007 
11:55	42.5	42.5	42.5	73	34.5	1	4	248	0.00	30.007 
12:00	42.6	42.6	42.6	73	34.6	1	5	248	0.00	30.008 
12:05	42.8	42.8	42.8	73	34.8	1	4	248	0.00	30.008 
12:10	42.9	42.9	42.9	73	34.9	1	4	248	0.00	30.008 
12:15	43.2	43.2	43.2	72	34.8	1	4	248	0.00	30.011 
12:20	43.2	43.2	43.2	71	34.4	1	5	248	0.00	30.011 
12:25	43.3	43.3	43.3	71	34.5	1	3	270	0.00	30.011 
12:30	43.5	43.5	43.5	72	35.1	0	4	248	0.00	30.007 
12:35	43.6	43.6	43.6	71	34.8	1	5	248	0.00	30.007 
12:40	43.6	43.6	43.6	69	34.1	1	4	248	0.00	30.007 
12:45	44.1	44.1	44.1	69	34.6	0	2	248	0.00	30.007 
12:50	44.2	44.2	44.2	68	34.3	1	6	248	0.00	30.007 
12:55	44.2	44.2	44.2	67	33.9	1	4	248	0.00	30.007 
13:00	44.5	44.5	44.5	68	34.6	0	2	248	0.00	29.996 
13:05	44.5	44.5	44.5	64	33.1	1	4	248	0.00	29.996 
13:10	44.3	44.3	44.3	64	32.9	1	3	248	0.00	29.996 
13:15	44.3	44.3	44.3	65	33.3	1	2	248	0.00	29.991 
13:20	44.2	44.2	44.2	65	33.2	0	2	248	0.00	29.991 
13:25	44.5	44.5	44.5	66	33.9	0	2	248	0.00	29.991 
13:30	44.9	44.9	44.9	66	34.2	0	2	248	0.00	29.989 
13:35	45.2	45.2	45.2	63	33.4	1	4	270	0.00	29.989 
13:40	45.7	45.7	45.7	62	33.4	0	3	270	0.00	29.989 
13:45	46.1	46.1	46.1	61	33.4	2	4	270	0.00	29.981 
13:50	46.1	46.1	46.1	60	33.0	1	3	270	0.00	29.981 
13:55	46.5	46.5	46.5	61	33.8	0	3	270	0.00	29.981 
14:00	46.7	46.7	46.7	59	33.1	1	4	270	0.00	29.988 
14:05	46.7	46.7	46.7	59	33.1	1	3	270	0.00	29.988 
14:10	46.5	46.5	46.5	58	32.5	1	3	270	0.00	29.988 
14:15	46.4	46.4	46.4	58	32.4	1	4	270	0.00	29.994 
14:20	46.4	46.4	46.4	59	32.9	0	2	270	0.00	29.994 
14:25	46.2	46.2	46.2	59	32.7	1	3	270	0.00	29.994 
14:30	45.8	45.8	45.8	59	32.3	1	3	270	0.00	29.998 
14:35	45.7	45.7	45.7	60	32.6	1	3	292	0.00	29.998 
14:40	45.7	45.7	45.7	60	32.6	0	2	292	0.00	29.998 
14:45	45.7	45.7	45.7	61	33.0	0	1	292	0.00	30.001 
14:50	45.8	45.8	45.8	61	33.1	0	2	315	0.00	30.001 
14:55	45.8	45.8	45.8	60	32.7	0	1	315	0.00	30.001 
15:00	45.8	45.8	45.8	59	32.3	0	1	315	0.00	29.999 
15:05	45.8	45.8	45.8	60	32.7	0	1	315	0.00	29.999 
15:10	45.8	45.8	45.8	60	32.7	0	0	---	0.00	29.999 
15:15	45.8	45.8	45.8	58	31.9	0	1	315	0.00	30.015 
15:20	45.8	45.8	45.8	58	31.9	0	1	315	0.00	30.015 
15:25	45.8	45.8	45.8	57	31.4	0	1	315	0.00	30.015 
15:30	45.8	45.8	45.8	59	32.3	0	1	315	0.00	30.016 
15:35	45.7	45.7	45.7	60	32.6	0	1	315	0.00	30.016 
15:40	45.5	45.5	45.5	59	32.0	0	1	315	0.00	30.016 
15:45	45.5	45.5	45.5	59	32.0	0	1	315	0.00	30.014 
15:50	45.4	45.4	45.4	59	31.9	0	1	315	0.00	30.014 
15:55	45.4	45.4	45.4	59	31.9	0	0	---	0.00	30.014 
16:00	45.4	45.4	45.4	59	31.9	0	1	315	0.00	30.016 
16:05	45.2	45.2	45.2	59	31.7	0	0	---	0.00	30.016 
16:10	45.2	45.2	45.2	59	31.7	0	1	315	0.00	30.016 
16:15	45.2	45.2	45.2	59	31.7	0	1	315	0.00	30.020 
16:20	45.1	45.1	45.1	58	31.2	0	1	315	0.00	30.020 
16:25	45.1	45.1	45.1	61	32.5	0	1	315	0.00	30.020 
16:30	45.1	45.1	45.1	59	31.6	0	0	---	0.00	30.034 
16:35	44.9	44.9	44.9	59	31.5	0	1	315	0.00	30.034 
16:40	44.8	44.8	44.8	59	31.4	0	1	315	0.00	30.034 
16:45	44.8	44.8	44.8	59	31.4	0	1	315	0.00	30.036 
16:50	44.8	44.8	44.8	60	31.8	0	1	315	0.00	30.036 
16:55	44.8	44.8	44.8	61	32.2	0	1	315	0.00	30.036 
17:00	44.8	44.8	44.8	61	32.2	0	1	315	0.00	30.043 
17:05	44.6	44.6	44.6	62	32.4	0	1	315	0.00	30.043 
17:10	44.6	44.6	44.6	62	32.4	0	3	315	0.00	30.043 
17:15	44.6	44.6	44.6	62	32.4	0	1	45	0.00	30.030 
17:20	44.5	44.5	44.5	63	32.7	0	0	---	0.00	30.030 
17:25	44.5	44.5	44.5	63	32.7	0	0	---	0.00	30.030 
17:30	44.3	44.3	44.3	63	32.5	0	0	---	0.00	30.037 
17:35	44.2	44.2	44.2	64	32.8	0	0	---	0.00	30.037 
17:40	44.2	44.2	44.2	64	32.8	0	0	---	0.00	30.037 
17:45	44.1	44.1	44.1	65	33.1	0	0	---	0.00	30.027 
17:50	44.1	44.1	44.1	65	33.1	0	1	45	0.00	30.027 
17:55	43.9	43.9	43.9	65	32.9	0	1	45	0.00	30.027 
18:00	43.9	43.9	43.9	66	33.3	0	0	---	0.00	30.010 
18:05	43.8	43.8	43.8	67	33.6	0	1	45	0.00	30.010 
18:10	43.8	43.8	43.8	67	33.6	0	0	---	0.00	30.010 
18:15	43.5	43.5	43.5	67	33.3	0	0	---	0.00	30.019 
18:20	43.3	43.3	43.3	68	33.5	0	0	---	0.00	30.019 
18:25	43.2	43.2	43.2	68	33.4	0	1	45	0.00	30.019 
18:30	43.1	43.1	43.1	69	33.6	0	0	---	0.00	30.021 
18:35	42.9	42.9	42.9	70	33.8	0	0	---	0.00	30.021 
18:40	42.8	42.8	42.8	71	34.1	0	0	---	0.00	30.021 
18:45	42.8	42.8	42.8	71	34.1	0	0	---	0.00	30.022 
18:50	42.8	42.8	42.8	71	34.1	0	0	---	0.00	30.022 
18:55	42.8	42.8	42.8	71	34.1	0	0	---	0.00	30.022 
19:00	42.8	42.8	42.8	71	34.1	0	0	---	0.00	30.032 
19:05	42.8	42.8	42.8	70	33.7	0	0	---	0.00	30.032 
19:10	42.6	42.6	42.6	70	33.5	0	0	---	0.00	30.032 
19:15	42.5	42.5	42.5	70	33.4	0	0	---	0.00	30.036 
19:20	42.3	42.3	42.3	71	33.6	0	0	---	0.00	30.036 
19:25	42.2	42.2	42.2	71	33.5	0	0	---	0.00	30.036 
19:30	42.1	42.1	42.1	73	34.1	0	1	45	0.00	30.035 
19:35	41.9	41.9	41.9	73	33.9	0	1	45	0.00	30.035 
19:40	41.6	41.6	41.6	74	33.9	0	0	---	0.00	30.035 
19:45	41.5	41.5	41.5	75	34.2	0	1	45	0.00	30.024 
19:50	41.5	41.5	41.5	75	34.2	0	1	45	0.00	30.024 
19:55	41.5	41.5	41.5	74	33.8	0	1	45	0.00	30.024 
20:00	41.5	41.5	41.5	74	33.8	0	0	---	0.00	30.027 
20:05	41.5	41.5	41.5	74	33.8	0	0	---	0.00	30.027 
20:10	41.3	41.3	41.3	75	34.0	0	0	---	0.00	30.027 
20:15	41.3	41.3	41.3	76	34.3	0	0	---	0.00	30.053 
20:20	41.5	41.5	41.5	76	34.5	0	0	---	0.00	30.053 
20:25	41.8	41.8	41.8	76	34.8	0	1	45	0.00	30.053 
20:30	41.8	41.8	41.8	76	34.8	0	1	45	0.00	30.055 
20:35	41.9	41.9	41.9	75	34.6	0	1	45	0.00	30.055 
20:40	42.1	42.1	42.1	75	34.8	0	1	45	0.00	30.055 
20:45	42.1	42.1	42.1	74	34.4	0	0	---	0.00	30.050 
20:50	42.1	42.1	42.1	74	34.4	0	0	---	0.00	30.050 
20:55	42.1	42.1	42.1	74	34.4	0	0	---	0.00	30.050 
21:00	42.1	42.1	42.1	74	34.4	0	1	45	0.00	30.054 
21:05	42.2	42.2	42.2	75	34.9	0	0	---	0.00	30.054 
21:10	42.2	42.2	42.2	75	34.9	0	0	---	0.00	30.054 
21:15	42.2	42.2	42.2	76	35.2	0	1	45	0.00	30.051 
21:20	42.2	42.2	42.2	77	35.5	0	1	45	0.00	30.051 
21:25	42.1	42.1	42.1	77	35.4	0	0	---	0.00	30.051 
21:30	42.1	42.1	42.1	77	35.4	0	1	45	0.00	30.050 
21:35	42.1	42.1	42.1	77	35.4	0	1	45	0.00	30.050 
21:40	42.2	42.2	42.2	77	35.5	0	1	45	0.00	30.050 
21:45	42.2	42.2	42.2	77	35.5	0	2	45	0.00	30.049 
21:50	42.3	42.3	42.3	77	35.6	0	1	45	0.00	30.049 
21:55	42.3	42.3	42.3	77	35.6	0	1	45	0.00	30.049 
22:00	42.3	42.3	42.3	78	35.9	0	1	45	0.00	30.052 
22:05	42.3	42.3	42.3	78	35.9	0	1	45	0.00	30.052 
22:10	42.3	42.3	42.3	78	35.9	0	0	---	0.00	30.052 
22:15	42.3	42.3	42.3	79	36.3	0	0	---	0.00	30.047 
22:20	42.3	42.3	42.3	79	36.3	0	1	45	0.00	30.047 
22:25	42.3	42.3	42.3	79	36.3	0	1	45	0.00	30.047 
22:30	42.3	42.3	42.3	80	36.6	0	1	45	0.00	30.036 
22:35	42.2	42.2	42.2	80	36.5	0	1	45	0.00	30.036 
22:40	42.2	42.2	42.2	80	36.5	0	1	45	0.00	30.036 
22:45	42.2	42.2	42.2	80	36.5	0	1	45	0.00	30.042 
22:50	42.2	42.2	42.2	80	36.5	1	3	45	0.00	30.042 
22:55	42.2	42.2	42.2	80	36.5	0	1	45	0.00	30.042 
23:00	42.3	42.3	42.3	80	36.6	0	1	45	0.00	30.045 
23:05	42.3	42.3	42.3	80	36.6	0	3	45	0.00	30.045 
23:10	42.3	42.3	42.3	80	36.6	0	2	45	0.00	30.045 
23:15	42.3	42.3	42.3	80	36.6	0	1	45	0.00	30.038 
23:20	42.3	42.3	42.3	80	36.6	1	2	45	0.00	30.038 
23:25	42.3	42.3	42.3	79	36.3	0	2	45	0.00	30.038 
23:30	42.3	42.3	42.3	79	36.3	1	2	45	0.00	30.034 
23:35	42.3	42.3	42.3	78	35.9	0	2	45	0.00	30.034 
23:40	42.3	42.3	42.3	78	35.9	1	3	45	0.00	30.034 
23:45	42.5	42.5	42.5	77	35.8	0	2	45	0.00	30.032 
23:50	42.5	42.5	42.5	77	35.8	0	1	45	0.00	30.032 
23:55	42.5	42.5	42.5	77	35.8	0	1	45	0.00	30.032 

CoCoRaHS
IN-AL-39
A2 Web Hosting
Creative Commons License
GoDaddy
search engine by freefind advanced

loaded 2018-11-15 13:36:42 • last modified 2010-11-18 10:43:29
Privacy PolicyDisclaimer
• wx.awcolley.com is powered by PmWiki v.2002016 •
• all content (unless otherwise noted) © 2018 A W Colley